createdAt,value
2018-03-24T16:54:06.811Z,43.10
2018-03-24T16:56:34.720Z,41.57
2018-03-24T16:59:02.810Z,57.53
2018-03-24T17:01:30.657Z,55.40
2018-03-24T17:06:33.131Z,61.63
2018-03-24T17:09:01.008Z,48.87
2018-03-24T17:11:28.857Z,49.50
2018-03-24T17:13:56.693Z,47.50
2018-03-24T17:16:24.544Z,50.47
2018-03-24T17:18:52.425Z,48.20
2018-03-24T17:21:20.326Z,40.63
2018-03-24T17:23:48.183Z,48.20
2018-03-24T17:26:16.020Z,42.00
2018-03-24T17:28:43.931Z,47.83
2018-03-24T17:31:11.765Z,48.17
2018-03-24T17:33:39.807Z,49.07
2018-03-24T17:36:07.660Z,48.63
2018-03-24T17:38:35.552Z,49.67
2018-03-24T17:41:03.480Z,50.60
2018-03-24T17:43:31.408Z,60.57
2018-03-24T17:45:59.289Z,62.10
2018-03-24T17:48:27.135Z,56.40
2018-03-24T17:50:55.050Z,65.30
2018-03-24T17:53:22.932Z,55.63
2018-03-24T17:55:50.833Z,61.93
2018-03-24T17:58:18.688Z,59.80
2018-03-24T18:00:47.024Z,56.80
2018-03-24T18:03:14.887Z,58.93
2018-03-24T18:05:42.720Z,56.73
2018-03-24T18:08:10.631Z,57.73
2018-03-24T18:10:38.478Z,52.20
2018-03-24T18:13:06.348Z,55.87
2018-03-24T18:15:34.196Z,58.47
2018-03-24T18:18:02.440Z,59.17
2018-03-24T18:20:30.378Z,46.40
2018-03-24T18:22:58.236Z,54.37
2018-03-24T18:25:26.174Z,49.60
2018-03-24T18:27:54.010Z,57.67
2018-03-24T18:30:21.891Z,51.07
2018-03-24T18:32:49.813Z,52.50
2018-03-24T18:35:17.710Z,57.50
2018-03-24T18:37:45.643Z,58.03
2018-03-24T18:40:13.625Z,60.80
2018-03-24T18:42:41.484Z,59.50
2018-03-24T18:45:09.360Z,57.87
2018-03-24T18:47:37.235Z,54.10
2018-03-24T18:50:05.104Z,65.17
2018-03-24T18:52:32.987Z,65.33
2018-03-24T18:55:00.836Z,60.07
2018-03-24T18:57:28.683Z,67.20
2018-03-24T18:59:56.577Z,53.70
2018-03-24T19:02:24.451Z,58.50
2018-03-24T19:04:52.295Z,54.93
2018-03-24T19:07:20.204Z,53.60
2018-03-24T19:09:48.104Z,62.73
2018-03-24T19:12:15.972Z,53.00
2018-03-24T19:14:43.920Z,54.90
2018-03-24T19:17:11.764Z,60.27
2018-03-24T19:19:39.619Z,55.70
2018-03-24T19:22:07.496Z,55.20
2018-03-24T19:24:35.345Z,52.30
2018-03-24T19:27:03.194Z,53.73
2018-03-24T19:29:31.371Z,53.67
2018-03-24T19:31:59.259Z,53.23
2018-03-24T19:34:27.150Z,56.90
2018-03-24T19:36:55.055Z,59.77
2018-03-24T19:39:22.936Z,61.97
2018-03-24T19:41:50.791Z,58.97
2018-03-24T19:44:18.735Z,64.30
2018-03-24T19:46:47.112Z,60.43
2018-03-24T19:49:14.972Z,64.07
2018-03-24T19:51:42.888Z,65.13
2018-03-24T19:54:10.790Z,64.23
2018-03-24T19:56:38.680Z,76.37
2018-03-24T19:59:06.568Z,68.93
2018-03-24T20:01:34.404Z,64.67
2018-03-24T20:04:02.302Z,54.30
2018-03-24T20:06:30.180Z,62.23
2018-03-24T20:08:58.028Z,58.80
2018-03-24T20:11:25.885Z,65.70
2018-03-24T20:13:53.801Z,59.73
2018-03-24T20:16:21.664Z,65.90
2018-03-24T20:18:49.517Z,60.33
2018-03-24T20:21:17.492Z,65.00
2018-03-24T20:23:45.341Z,76.83
2018-03-24T20:26:13.234Z,67.53
2018-03-24T20:28:41.119Z,68.13
2018-03-24T20:31:08.991Z,63.03
2018-03-24T20:33:36.853Z,66.33
2018-03-24T20:36:04.719Z,63.90
2018-03-24T20:38:32.601Z,58.83
2018-03-24T20:41:00.505Z,56.60
2018-03-24T20:43:28.393Z,61.40
2018-03-24T20:45:56.652Z,57.50
2018-03-24T20:48:24.516Z,63.73
2018-03-24T20:50:52.407Z,63.80
2018-03-24T20:53:20.252Z,64.90
2018-03-24T20:55:48.109Z,61.90
2018-03-24T20:58:15.989Z,61.80
2018-03-24T21:00:43.909Z,64.93
2018-03-24T21:03:11.789Z,61.33
2018-03-24T21:05:39.682Z,64.40
2018-03-24T21:08:07.681Z,71.93
2018-03-24T21:10:35.537Z,58.80
2018-03-24T21:13:03.443Z,56.33
2018-03-24T21:15:31.311Z,62.40
2018-03-24T21:17:59.170Z,61.60
2018-03-24T21:20:27.038Z,65.77
2018-03-24T21:22:54.944Z,70.83
2018-03-24T21:25:22.880Z,66.73
2018-03-24T21:27:50.801Z,67.23
2018-03-24T21:30:18.691Z,100.53
2018-03-24T21:32:46.821Z,90.33
2018-03-24T21:35:14.676Z,59.50
2018-03-24T21:37:42.538Z,58.57
2018-03-24T21:40:10.458Z,67.50
2018-03-24T21:42:38.346Z,61.20
2018-03-24T21:45:06.219Z,69.10
2018-03-24T21:47:34.056Z,61.23
2018-03-24T21:50:01.985Z,57.70
2018-03-24T21:52:29.848Z,76.37
2018-03-24T21:54:57.715Z,68.60
2018-03-24T21:57:25.579Z,74.00
2018-03-24T21:59:53.452Z,59.27
2018-03-24T22:02:21.344Z,56.40
2018-03-24T22:04:49.200Z,56.37
2018-03-24T22:07:17.086Z,52.30
2018-03-24T22:09:44.929Z,52.90
2018-03-24T22:12:12.849Z,52.83
2018-03-24T22:14:40.697Z,56.97
2018-03-24T22:17:08.601Z,57.47
2018-03-24T22:19:36.481Z,69.27
2018-03-24T22:22:04.334Z,62.77
2018-03-24T22:24:32.195Z,54.77
2018-03-24T22:27:00.121Z,59.13
2018-03-24T22:29:28.004Z,58.10
2018-03-24T22:31:55.860Z,56.70
2018-03-24T22:34:23.708Z,65.20
2018-03-24T22:36:51.572Z,52.60
2018-03-24T22:39:19.424Z,55.10
2018-03-24T22:41:47.295Z,52.70
2018-03-24T22:44:15.152Z,53.90
2018-03-24T22:46:43.049Z,54.90
2018-03-24T22:49:10.905Z,52.30
2018-03-24T22:51:38.813Z,58.07
2018-03-24T22:54:06.741Z,52.00
2018-03-24T22:56:34.600Z,56.13
2018-03-24T22:59:02.500Z,59.27
2018-03-24T23:01:30.368Z,56.03
2018-03-24T23:03:58.244Z,54.80
2018-03-24T23:06:26.096Z,53.50
2018-03-24T23:08:54.008Z,53.30
2018-03-24T23:11:21.853Z,52.33
2018-03-24T23:13:49.703Z,59.10
2018-03-24T23:16:17.621Z,53.57
2018-03-24T23:18:45.496Z,54.37
2018-03-24T23:21:13.419Z,65.50
2018-03-24T23:23:41.274Z,61.23
2018-03-24T23:26:09.121Z,63.70
2018-03-24T23:28:37.001Z,59.40
2018-03-24T23:31:04.876Z,57.93
2018-03-24T23:33:32.774Z,60.63
2018-03-24T23:36:00.636Z,59.50
2018-03-24T23:38:28.490Z,69.00
2018-03-24T23:40:56.420Z,64.60
2018-03-24T23:43:24.270Z,58.90
2018-03-24T23:45:52.161Z,59.40
2018-03-24T23:48:20.033Z,64.07
2018-03-24T23:50:47.880Z,56.67
2018-03-24T23:53:15.732Z,62.03
2018-03-24T23:55:43.620Z,68.60
2018-03-24T23:58:11.459Z,63.27
